Time;durP1;ratioP1;P1;durP2;ratioP2;P2;SDS_P1;SDS_P2;PMS_P1;PMS_P2;Temp;Humidity;BMP_temperature;BMP_pressure;BME280_temperature;BME280_humidity;BME280_pressure;Samples;Min_cycle;Max_cycle;Signal;HPM_P1;HPM_P2
2023/12/30 00:02:48;;;;;;;100.75;69.43;;;;;;;;;;5047691;28;20044;-72
2023/12/30 00:05:53;;;;;;;105.72;70.78;;;;;;;;;;5047467;28;20048;-72
2023/12/30 00:08:57;;;;;;;103.13;71.43;;;;;;;;;;5047604;28;20064;-72
2023/12/30 00:12:01;;;;;;;113.38;75.45;;;;;;;;;;5047641;28;20048;-72
2023/12/30 00:15:09;;;;;;;112.10;76.88;;;;;;;;;;5047560;28;20051;-72
2023/12/30 00:18:15;;;;;;;113.75;79.55;;;;;;;;;;5094613;28;20527;-72
2023/12/30 00:21:19;;;;;;;116.07;78.85;;;;;;;;;;5095243;28;20056;-72
2023/12/30 00:24:23;;;;;;;120.22;82.18;;;;;;;;;;5047288;28;20052;-72
2023/12/30 00:27:28;;;;;;;119.32;80.63;;;;;;;;;;5047256;28;20044;-72
2023/12/30 00:30:32;;;;;;;119.82;80.72;;;;;;;;;;5097421;27;20044;-72
2023/12/30 00:33:36;;;;;;;122.93;81.00;;;;;;;;;;5098295;27;20052;-72
2023/12/30 00:36:44;;;;;;;121.07;83.13;;;13.50;99.90;;;;;;5098394;27;20068;-72
2023/12/30 00:39:49;;;;;;;129.25;82.75;;;;;;;;;;5050846;28;20071;-71
2023/12/30 00:42:53;;;;;;;118.05;80.43;;;;;;;;;;5098826;27;20044;-72
2023/12/30 00:45:57;;;;;;;136.60;92.07;;;;;;;;;;5050519;28;20511;-72
2023/12/30 00:49:02;;;;;;;122.57;85.20;;;;;;;;;;5098658;27;20044;-72
2023/12/30 00:52:06;;;;;;;121.75;85.13;;;;;;;;;;5050477;28;20056;-72
2023/12/30 00:55:10;;;;;;;121.97;80.10;;;;;;;;;;5050585;28;20121;-72
2023/12/30 00:58:14;;;;;;;112.13;76.30;;;;;;;;;;5050415;28;20064;-71
2023/12/30 01:01:19;;;;;;;114.15;76.80;;;;;;;;;;5050571;28;20048;-72
2023/12/30 01:04:23;;;;;;;107.25;75.07;;;;;;;;;;5050376;28;20067;-72
2023/12/30 01:07:27;;;;;;;108.85;74.40;;;;;;;;;;5097435;27;20044;-72
2023/12/30 01:10:32;;;;;;;115.30;74.75;;;;;;;;;;5049650;28;20048;-71
2023/12/30 01:13:36;;;;;;;109.75;74.75;;;;;;;;;;5097869;27;20048;-72
2023/12/30 01:16:40;;;;;;;117.93;76.63;;;;;;;;;;5049442;28;20074;-72
2023/12/30 01:19:45;;;;;;;145.20;89.13;;;;;;;;;;5097840;27;20483;-72
2023/12/30 01:22:49;;;;;;;110.80;71.32;;;;;;;;;;5085918;28;20048;-71
2023/12/30 01:25:54;;;;;;;102.40;67.40;;;;;;;;;;5097655;27;20503;-72
2023/12/30 01:28:59;;;;;;;102.80;66.22;;;;;;;;;;5049662;28;20044;-72
2023/12/30 01:32:03;;;;;;;106.10;70.90;;;;;;;;;;5049580;28;20042;-71
2023/12/30 01:35:07;;;;;;;130.07;72.85;;;;;;;;;;5097521;27;20048;-72
2023/12/30 01:38:11;;;;;;;109.35;68.20;;;;;;;;;;5096606;27;20047;-72
2023/12/30 01:41:15;;;;;;;98.03;64.10;;;;;;;;;;5096427;27;20044;-72
2023/12/30 01:44:20;;;;;;;124.03;79.60;;;;;;;;;;5096987;27;20044;-72
2023/12/30 01:47:24;;;;;;;102.50;65.47;;;;;;;;;;5096890;27;20515;-72
2023/12/30 01:50:30;;;;;;;88.93;63.17;;;;;;;;;;5049100;28;20044;-72
2023/12/30 01:53:38;;;;;;;90.55;63.20;;;13.50;99.90;;;;;;5097083;27;20151;-71
2023/12/30 01:56:43;;;;;;;92.40;64.90;;;;;;;;;;5048926;28;20071;-72
2023/12/30 01:59:47;;;;;;;94.82;61.80;;;;;;;;;;5096906;27;20040;-72
2023/12/30 02:02:53;;;;;;;89.93;60.42;;;;;;;;;;5096945;27;20044;-72
2023/12/30 02:05:57;;;;;;;81.60;58.20;;;;;;;;;;5049221;28;20040;-71
2023/12/30 02:09:02;;;;;;;87.15;56.53;;;;;;;;;;5049104;28;20476;-72
2023/12/30 02:12:07;;;;;;;89.88;59.35;;;;;;;;;;5096670;27;20495;-72
2023/12/30 02:15:21;;;;;;;91.22;61.35;;;13.10;99.90;;;;;;5095889;27;20160;-72
2023/12/30 02:18:26;;;;;;;91.63;62.13;;;;;;;;;;5096453;27;20657;-71
2023/12/30 02:21:30;;;;;;;90.82;63.15;;;;;;;;;;5096642;27;20048;-72
2023/12/30 02:24:35;;;;;;;91.28;63.42;;;;;;;;;;5048893;28;20656;-72
2023/12/30 02:27:39;;;;;;;98.95;64.95;;;;;;;;;;5095775;27;20048;-71
2023/12/30 02:30:43;;;;;;;88.57;62.17;;;;;;;;;;5096322;27;20036;-72
2023/12/30 02:33:48;;;;;;;93.47;62.83;;;;;;;;;;5048785;28;20068;-71
2023/12/30 02:36:52;;;;;;;99.45;64.82;;;;;;;;;;5096047;27;20060;-71
2023/12/30 02:39:56;;;;;;;91.75;61.30;;;;;;;;;;5048647;28;20123;-72
2023/12/30 02:43:01;;;;;;;94.65;66.18;;;;;;;;;;5096243;27;20048;-72
2023/12/30 02:46:05;;;;;;;95.97;64.72;;;;;;;;;;5095857;27;20040;-72
2023/12/30 02:49:09;;;;;;;99.82;63.72;;;;;;;;;;5095884;27;20044;-72
2023/12/30 02:52:14;;;;;;;100.18;63.00;;;;;;;;;;5048189;28;20388;-72
2023/12/30 02:55:19;;;;;;;96.82;64.80;;;;;;;;;;5095473;27;20056;-72
2023/12/30 02:58:23;;;;;;;96.10;62.67;;;;;;;;;;5084382;28;20075;-72
2023/12/30 03:01:29;;;;;;;94.68;63.80;;;12.90;99.90;;;;;;5048245;28;20491;-72
2023/12/30 03:04:35;;;;;;;91.90;61.97;;;;;;;;;;5083959;28;20056;-72
2023/12/30 03:07:39;;;;;;;92.93;62.08;;;;;;;;;;5095217;27;20044;-72
2023/12/30 03:10:46;;;;;;;96.03;62.13;;;;;;;;;;5048032;28;20036;-72
2023/12/30 03:13:51;;;;;;;88.78;60.85;;;;;;;;;;5048209;28;20052;-71
2023/12/30 03:16:55;;;;;;;90.82;60.22;;;;;;;;;;5047552;28;20056;-72
2023/12/30 03:20:00;;;;;;;86.38;60.97;;;;;;;;;;5095366;27;20040;-72
2023/12/30 03:23:05;;;;;;;92.05;60.10;;;;;;;;;;5095327;27;20071;-72
2023/12/30 03:26:09;;;;;;;97.43;63.88;;;;;;;;;;5095569;27;20051;-72
2023/12/30 03:29:13;;;;;;;101.32;63.75;;;;;;;;;;5047763;28;20044;-71
2023/12/30 03:32:18;;;;;;;93.32;62.50;;;;;;;;;;5047614;28;20040;-72
2023/12/30 03:35:22;;;;;;;93.63;63.38;;;;;;;;;;5047634;28;20048;-72
2023/12/30 03:38:26;;;;;;;100.30;65.55;;;;;;;;;;5047751;28;20045;-72
2023/12/30 03:41:31;;;;;;;98.28;64.65;;;;;;;;;;5047469;28;20044;-72
2023/12/30 03:44:35;;;;;;;100.68;64.85;;;;;;;;;;5047538;28;20499;-72
2023/12/30 03:47:39;;;;;;;95.78;63.40;;;;;;;;;;5083579;28;20060;-72
2023/12/30 03:50:43;;;;;;;91.97;61.60;;;;;;;;;;5047321;28;20044;-71
2023/12/30 03:53:48;;;;;;;89.03;62.05;;;;;;;;;;5047637;28;20044;-71
2023/12/30 03:56:54;;;;;;;83.50;55.20;;;;;;;;;;5094516;28;20056;-71
2023/12/30 03:59:58;;;;;;;80.63;57.33;;;;;;;;;;5047269;28;20392;-72
2023/12/30 04:03:03;;;;;;;84.43;55.10;;;;;;;;;;5047480;28;20048;-72
2023/12/30 04:06:07;;;;;;;95.10;58.60;;;;;;;;;;5098067;27;20040;-72
2023/12/30 04:09:12;;;;;;;84.43;57.55;;;;;;;;;;5087341;28;20404;-72
2023/12/30 04:12:16;;;;;;;78.07;52.70;;;;;;;;;;5098941;27;20043;-71
2023/12/30 04:15:20;;;;;;;80.40;52.22;;;;;;;;;;5050760;28;20047;-72
2023/12/30 04:18:27;;;;;;;86.82;55.63;;;;;;;;;;5098026;27;20048;-72
2023/12/30 04:21:31;;;;;;;81.65;53.22;;;;;;;;;;5098531;27;20040;-72
2023/12/30 04:24:36;;;;;;;76.32;53.85;;;;;;;;;;5050617;28;20044;-72
2023/12/30 04:27:40;;;;;;;81.57;51.35;;;;;;;;;;5098472;27;20040;-72
2023/12/30 04:30:44;;;;;;;78.60;51.25;;;;;;;;;;5098276;27;20392;-72
2023/12/30 04:33:49;;;;;;;74.40;52.10;;;;;;;;;;5098227;27;20127;-72
2023/12/30 04:36:53;;;;;;;70.63;48.78;;;11.10;99.90;;;;;;5097845;27;20056;-72
2023/12/30 04:39:57;;;;;;;70.13;51.17;;;;;;;;;;5050317;28;20048;-72
2023/12/30 04:43:02;;;;;;;71.85;48.00;;;;;;;;;;5074631;28;20064;-72
2023/12/30 04:46:07;;;;;;;72.72;48.58;;;;;;;;;;5098044;27;20052;-71
2023/12/30 04:49:11;;;;;;;74.82;50.25;;;;;;;;;;5098548;27;20191;-72
2023/12/30 04:52:16;;;;;;;74.43;49.67;;;;;;;;;;5099966;27;20048;-72
2023/12/30 04:55:20;;;;;;;81.95;50.25;;;;;;;;;;5097965;27;20048;-71
2023/12/30 04:58:25;;;;;;;66.60;48.22;;;;;;;;;;5098189;27;20400;-71
2023/12/30 05:01:33;;;;;;;71.70;49.40;;;13.30;99.90;;;;;;5050174;28;20044;-71
2023/12/30 05:04:37;;;;;;;74.22;50.00;;;;;;;;;;5098011;27;20044;-71
2023/12/30 05:07:41;;;;;;;73.78;49.83;;;;;;;;;;5097719;27;20044;-71
2023/12/30 05:10:46;;;;;;;78.38;50.42;;;;;;;;;;5050080;28;20056;-71
2023/12/30 05:13:51;;;;;;;82.15;51.05;;;;;;;;;;5049679;28;20060;-72
2023/12/30 05:16:55;;;;;;;76.68;51.38;;;;;;;;;;5048046;28;20416;-71
2023/12/30 05:19:59;;;;;;;69.97;48.33;;;;;;;;;;5049726;28;20048;-71
2023/12/30 05:23:04;;;;;;;67.45;47.15;;;;;;;;;;5049877;28;20499;-72
2023/12/30 05:26:09;;;;;;;76.20;49.40;;;;;;;;;;5049805;28;20476;-72
2023/12/30 05:29:12;;;;;;;75.03;48.63;;;;;;;;;;5049357;28;20044;-71
2023/12/30 05:32:17;;;;;;;76.60;48.03;;;;;;;;;;5097466;27;20048;-72
2023/12/30 05:35:21;;;;;;;69.30;45.47;;;;;;;;;;5097002;27;20048;-72
2023/12/30 05:38:26;;;;;;;72.25;45.15;;;;;;;;;;5049364;28;20060;-71
2023/12/30 05:41:30;;;;;;;61.72;43.45;;;;;;;;;;5049212;28;20048;-72
2023/12/30 05:44:34;;;;;;;70.90;46.30;;;;;;;;;;5049380;28;20113;-72
2023/12/30 05:47:39;;;;;;;61.50;42.60;;;;;;;;;;5049048;28;20102;-71
2023/12/30 05:50:43;;;;;;;61.97;42.25;;;;;;;;;;5049372;28;20064;-71
2023/12/30 05:53:50;;;;;;;60.33;41.63;;;13.70;99.90;;;;;;5048993;28;20036;-71
2023/12/30 05:56:55;;;;;;;65.30;44.50;;;;;;;;;;5049063;28;20056;-71
2023/12/30 05:59:59;;;;;;;68.05;46.33;;;;;;;;;;5048879;28;20066;-72
2023/12/30 06:03:03;;;;;;;79.07;49.60;;;;;;;;;;5049183;28;20048;-72
2023/12/30 06:06:07;;;;;;;74.38;51.00;;;;;;;;;;5048876;28;20056;-71
2023/12/30 06:09:12;;;;;;;73.03;47.28;;;;;;;;;;5049085;28;20040;-72
2023/12/30 06:12:16;;;;;;;73.35;46.35;;;;;;;;;;5048914;28;20048;-72
2023/12/30 06:15:21;;;;;;;66.07;45.58;;;13.20;99.90;;;;;;5049034;28;20504;-71
2023/12/30 06:18:30;;;;;;;61.22;43.65;;;;;;;;;;5048795;28;20499;-72
2023/12/30 06:21:34;;;;;;;67.40;43.90;;;;;;;;;;5048911;28;20048;-72
2023/12/30 06:24:39;;;;;;;69.88;46.22;;;;;;;;;;5048622;28;20052;-72
2023/12/30 06:27:43;;;;;;;64.07;46.05;;;;;;;;;;5048003;28;20043;-72
2023/12/30 06:30:47;;;;;;;66.75;45.90;;;;;;;;;;5048640;28;20506;-70
2023/12/30 06:33:52;;;;;;;65.65;44.90;;;;;;;;;;5048587;28;20052;-72
2023/12/30 06:36:56;;;;;;;67.00;44.67;;;;;;;;;;5048128;28;20503;-71
2023/12/30 06:40:00;;;;;;;64.30;45.97;;;;;;;;;;5048371;28;20060;-72
2023/12/30 06:43:05;;;;;;;64.47;46.30;;;;;;;;;;5048510;28;20040;-72
2023/12/30 06:46:09;;;;;;;66.35;43.47;;;;;;;;;;5048556;28;20044;-65
2023/12/30 06:49:15;;;;;;;67.57;44.97;;;;;;;;;;5048476;28;20032;-66
2023/12/30 06:52:19;;;;;;;70.70;44.95;;;;;;;;;;5096417;27;20044;-65
2023/12/30 06:55:24;;;;;;;68.75;44.42;;;;;;;;;;5048545;28;20533;-65
2023/12/30 06:58:29;;;;;;;73.43;45.67;;;;;;;;;;5048391;28;20048;-65
2023/12/30 07:01:37;;;;;;;63.10;45.25;;;;;;;;;;5048685;28;20499;-65
2023/12/30 07:04:41;;;;;;;70.57;45.38;;;;;;;;;;5048134;28;20495;-64
2023/12/30 07:07:46;;;;;;;84.80;48.97;;;;;;;;;;5048255;28;20500;-65
2023/12/30 07:10:50;;;;;;;73.35;45.95;;;;;;;;;;5048304;28;20392;-65
2023/12/30 07:13:54;;;;;;;69.15;43.60;;;;;;;;;;5048268;28;20048;-65
2023/12/30 07:16:59;;;;;;;68.15;44.00;;;;;;;;;;5047952;28;20060;-65
2023/12/30 07:20:03;;;;;;;72.80;43.78;;;;;;;;;;5048394;28;20048;-65
2023/12/30 07:23:08;;;;;;;67.18;43.50;;;13.30;99.90;;;;;;5048267;28;20059;-65
2023/12/30 07:26:12;;;;;;;64.57;44.70;;;;;;;;;;5047979;28;20523;-65
2023/12/30 07:29:17;;;;;;;74.63;47.70;;;;;;;;;;5095586;27;20048;-65
2023/12/30 07:32:21;;;;;;;73.57;47.80;;;;;;;;;;5048248;28;20048;-65
2023/12/30 07:35:27;;;;;;;73.15;46.05;;;;;;;;;;5047986;28;20052;-67
2023/12/30 07:38:32;;;;;;;80.78;49.80;;;;;;;;;;5048263;28;20400;-65
2023/12/30 07:41:38;;;;;;;71.45;48.33;;;;;;;;;;5047669;28;20048;-65
2023/12/30 07:44:42;;;;;;;73.65;48.22;;;;;;;;;;5048019;28;20048;-65
2023/12/30 07:47:47;;;;;;;65.25;46.08;;;;;;;;;;5047872;28;20040;-65
2023/12/30 07:50:51;;;;;;;75.57;47.72;;;;;;;;;;5083509;28;20400;-65
2023/12/30 07:53:56;;;;;;;72.35;47.25;;;;;;;;;;5047676;28;20044;-66
2023/12/30 07:57:00;;;;;;;70.13;46.95;;;;;;;;;;5047537;28;20071;-65
2023/12/30 08:00:06;;;;;;;74.93;50.97;;;14.40;99.90;;;;;;5047441;28;20045;-65
2023/12/30 08:03:16;;;;;;;75.60;48.67;;;;;;;;;;5047702;28;20048;-65
2023/12/30 08:06:20;;;;;;;75.95;48.83;;;;;;;;;;5047408;28;20040;-65
2023/12/30 08:09:24;;;;;;;83.03;49.35;;;;;;;;;;5095153;28;20496;-67
2023/12/30 08:12:28;;;;;;;68.43;45.67;;;;;;;;;;5047313;28;20048;-66
2023/12/30 08:15:33;;;;;;;83.28;50.05;;;;;;;;;;5095037;28;20464;-66
2023/12/30 08:18:38;;;;;;;79.47;49.55;;;;;;;;;;5047421;28;20060;-64
2023/12/30 08:21:43;;;;;;;73.65;45.92;;;;;;;;;;5047502;28;20040;-66
2023/12/30 08:24:50;;;;;;;67.25;44.65;;;13.60;99.90;;;;;;5047325;28;20492;-65
2023/12/30 08:27:54;;;;;;;61.83;39.92;;;;;;;;;;5047243;28;20040;-65
2023/12/30 08:30:59;;;;;;;61.10;39.65;;;;;;;;;;5047129;28;20427;-66
2023/12/30 08:34:03;;;;;;;62.72;39.15;;;;;;;;;;5046927;28;20048;-65
2023/12/30 08:37:10;;;;;;;63.97;36.38;;;;;;;;;;5046965;28;20048;-65
2023/12/30 08:40:14;;;;;;;67.53;36.83;;;;;;;;;;5047364;28;20044;-65
2023/12/30 08:43:19;;;;;;;56.22;35.22;;;;;;;;;;5046896;28;20049;-65
2023/12/30 08:46:23;;;;;;;57.33;34.13;;;;;;;;;;5046885;28;20396;-67
2023/12/30 08:49:27;;;;;;;58.17;32.30;;;;;;;;;;5047239;28;20044;-67
2023/12/30 08:52:31;;;;;;;49.30;34.35;;;;;;;;;;5050338;28;20044;-65
2023/12/30 08:55:36;;;;;;;57.05;34.90;;;13.90;99.90;;;;;;5050410;28;20036;-64
2023/12/30 08:58:40;;;;;;;62.92;32.55;;;;;;;;;;5050415;28;20056;-65
2023/12/30 09:01:45;;;;;;;44.63;30.35;;;;;;;;;;5050013;28;20040;-66
2023/12/30 09:04:49;;;;;;;44.25;29.10;;;;;;;;;;5097949;27;20052;-65
2023/12/30 09:07:53;;;;;;;45.53;30.58;;;;;;;;;;5048806;28;20060;-67
2023/12/30 09:10:58;;;;;;;49.58;30.02;;;;;;;;;;5049962;28;20052;-66
2023/12/30 09:14:02;;;;;;;36.97;26.10;;;;;;;;;;5050066;28;20064;-68
2023/12/30 09:17:07;;;;;;;39.67;25.80;;;;;;;;;;5049916;28;20056;-67
2023/12/30 09:20:11;;;;;;;37.33;26.50;;;;;;;;;;5097206;27;20044;-70
2023/12/30 09:23:15;;;;;;;35.42;24.13;;;;;;;;;;5086292;28;20044;-66
2023/12/30 09:26:20;;;;;;;37.20;23.80;;;;;;;;;;5050092;28;20048;-65
2023/12/30 09:29:24;;;;;;;36.13;22.15;;;;;;;;;;5049964;28;20048;-65
2023/12/30 09:32:28;;;;;;;28.50;20.08;;;;;;;;;;5049749;28;20040;-65
2023/12/30 09:35:32;;;;;;;31.65;20.08;;;;;;;;;;5050600;28;20533;-64
2023/12/30 09:38:37;;;;;;;30.10;19.67;;;;;;;;;;5097483;27;20376;-64
2023/12/30 09:41:41;;;;;;;27.67;17.92;;;;;;;;;;5049596;28;20044;-64
2023/12/30 09:44:50;;;;;;;28.08;18.23;;;;;;;;;;5049763;28;20048;-64
2023/12/30 09:47:56;;;;;;;30.45;19.70;;;;;;;;;;5049692;28;20056;-64
2023/12/30 09:51:00;;;;;;;29.90;20.38;;;;;;;;;;5049489;28;20048;-64
2023/12/30 09:54:04;;;;;;;34.38;21.77;;;;;;;;;;5049319;28;20067;-64
2023/12/30 09:57:09;;;;;;;32.30;19.25;;;;;;;;;;5048972;28;20060;-64
2023/12/30 10:00:16;;;;;;;28.70;18.75;;;;;;;;;;5049398;28;20044;-64
2023/12/30 10:03:21;;;;;;;31.38;18.77;;;;;;;;;;5047437;28;20044;-65
2023/12/30 10:06:26;;;;;;;28.13;19.17;;;;;;;;;;5048935;28;20060;-64
2023/12/30 10:09:30;;;;;;;20.92;15.57;;;;;;;;;;5048828;28;20044;-64
2023/12/30 10:12:34;;;;;;;20.58;14.90;;;;;;;;;;5048951;28;20052;-64
2023/12/30 10:15:39;;;;;;;21.25;14.88;;;;;;;;;;5049146;28;20044;-64
2023/12/30 10:18:43;;;;;;;36.80;22.45;;;;;;;;;;5096528;27;20389;-64
2023/12/30 10:21:47;;;;;;;23.63;16.58;;;;;;;;;;5048948;28;20072;-64
2023/12/30 10:24:52;;;;;;;22.77;13.75;;;;;;;;;;5096823;27;20048;-64
2023/12/30 10:27:56;;;;;;;19.90;13.98;;;;;;;;;;5048860;28;20056;-64
2023/12/30 10:31:04;;;;;;;19.20;12.68;;;16.60;97.30;;;;;;5049095;28;20052;-64
2023/12/30 10:34:10;;;;;;;23.85;16.45;;;;;;;;;;5095772;27;20045;-64
2023/12/30 10:37:14;;;;;;;23.80;16.92;;;;;;;;;;5048493;28;20044;-64
2023/12/30 10:40:19;;;;;;;18.80;13.68;;;;;;;;;;5048535;28;20147;-65
2023/12/30 10:43:24;;;;;;;17.83;12.98;;;;;;;;;;5048544;28;20044;-64
2023/12/30 10:46:29;;;;;;;17.23;12.77;;;;;;;;;;5096359;27;20051;-64
2023/12/30 10:49:33;;;;;;;20.63;13.20;;;;;;;;;;5048424;28;20040;-64
2023/12/30 10:52:43;;;;;;;16.67;12.70;;;;;;;;;;5048406;28;20044;-64
2023/12/30 10:55:53;;;;;;;19.45;12.60;;;;;;;;;;5048453;28;20067;-64
2023/12/30 10:59:03;;;;;;;18.98;13.05;;;15.70;97.10;;;;;;5048225;28;20056;-64
2023/12/30 11:02:10;;;;;;;17.17;12.32;;;;;;;;;;5048082;28;20515;-64
2023/12/30 11:05:24;;;;;;;20.30;13.10;;;;;;;;;;5048318;28;20040;-64
2023/12/30 11:08:28;;;;;;;14.55;10.65;;;;;;;;;;5048525;28;20044;-64
2023/12/30 11:11:33;;;;;;;13.23;9.80;;;;;;;;;;5048445;28;20044;-65
2023/12/30 11:14:37;;;;;;;12.77;8.85;;;;;;;;;;5094601;27;20067;-64
2023/12/30 11:17:42;;;;;;;12.05;9.40;;;;;;;;;;5047901;28;20515;-65
2023/12/30 11:20:46;;;;;;;14.20;9.60;;;;;;;;;;5048488;28;20052;-64
2023/12/30 11:24:03;;;;;;;13.32;10.43;;;15.50;97.20;;;;;;5048236;28;20057;-65
2023/12/30 11:27:07;;;;;;;19.60;12.45;;;;;;;;;;5047791;28;20661;-64
2023/12/30 11:30:16;;;;;;;15.05;11.50;;;15.90;97.30;;;;;;5047623;28;20044;-64
2023/12/30 11:33:21;;;;;;;16.50;12.38;;;;;;;;;;5047697;28;20071;-64
2023/12/30 11:36:26;;;;;;;15.57;10.82;;;;;;;;;;5047491;28;20040;-64
2023/12/30 11:39:31;;;;;;;19.05;11.90;;;;;;;;;;5047780;28;20420;-64
2023/12/30 11:42:36;;;;;;;19.33;12.50;;;;;;;;;;5047441;28;20040;-64
2023/12/30 11:45:41;;;;;;;19.70;12.05;;;;;;;;;;5047506;28;20060;-64
2023/12/30 11:48:45;;;;;;;18.02;11.85;;;;;;;;;;5047417;28;20044;-66
2023/12/30 11:51:50;;;;;;;13.38;10.32;;;;;;;;;;5047747;28;20607;-65
2023/12/30 11:54:54;;;;;;;20.30;12.52;;;;;;;;;;5047303;28;20040;-65
2023/12/30 11:57:58;;;;;;;18.05;12.98;;;;;;;;;;5047450;28;20056;-65
2023/12/30 12:01:02;;;;;;;16.20;11.77;;;;;;;;;;5047510;28;20048;-65
2023/12/30 12:04:08;;;;;;;17.90;11.32;;;;;;;;;;5047303;28;20044;-64
2023/12/30 12:07:12;;;;;;;14.57;11.35;;;;;;;;;;5047351;28;20060;-65
2023/12/30 12:10:17;;;;;;;19.17;13.23;;;;;;;;;;5047418;28;20043;-65
2023/12/30 12:13:21;;;;;;;26.80;15.98;;;;;;;;;;5047724;28;20048;-63
2023/12/30 12:16:27;;;;;;;22.67;14.05;;;;;;;;;;5047092;28;20400;-65
2023/12/30 12:19:31;;;;;;;23.67;14.57;;;;;;;;;;5047301;28;20068;-65
2023/12/30 12:22:35;;;;;;;25.90;13.68;;;;;;;;;;5047099;28;20040;-64
2023/12/30 12:25:43;;;;;;;28.92;19.45;;;16.20;97.80;;;;;;5047782;28;20056;-65
2023/12/30 12:28:47;;;;;;;32.78;18.92;;;;;;;;;;5050901;28;20056;-65
2023/12/30 12:31:52;;;;;;;22.27;15.77;;;;;;;;;;5050553;28;20412;-65
2023/12/30 12:34:56;;;;;;;21.83;15.23;;;;;;;;;;5050789;28;20071;-65
2023/12/30 12:38:00;;;;;;;21.98;15.13;;;;;;;;;;5050389;28;20059;-64
2023/12/30 12:41:05;;;;;;;19.63;14.13;;;;;;;;;;5086340;28;20514;-65
2023/12/30 12:44:09;;;;;;;18.75;14.10;;;;;;;;;;5050421;28;20060;-63
2023/12/30 12:47:14;;;;;;;46.60;18.10;;;;;;;;;;5086586;28;20048;-65
2023/12/30 12:50:18;;;;;;;22.67;15.27;;;;;;;;;;5098441;27;20064;-64
2023/12/30 12:53:23;;;;;;;25.98;16.40;;;;;;;;;;5050496;28;20056;-63
2023/12/30 12:56:27;;;;;;;26.92;16.65;;;;;;;;;;5050316;28;20745;-64
2023/12/30 12:59:31;;;;;;;23.65;15.88;;;;;;;;;;5050544;28;20048;-64
2023/12/30 13:02:37;;;;;;;28.38;16.90;;;;;;;;;;5050249;28;20527;-64
2023/12/30 13:05:41;;;;;;;20.90;15.85;;;;;;;;;;5050217;28;20396;-64
2023/12/30 13:08:48;;;;;;;22.65;15.55;;;;;;;;;;5050459;28;20040;-64
2023/12/30 13:11:53;;;;;;;17.42;13.65;;;;;;;;;;5050352;28;20048;-64
2023/12/30 13:14:58;;;;;;;19.27;15.20;;;;;;;;;;5050014;28;20106;-64
2023/12/30 13:18:05;;;;;;;23.85;14.93;;;;;;;;;;5049960;28;20052;-64
2023/12/30 13:21:09;;;;;;;24.90;18.10;;;;;;;;;;5050310;28;20048;-64
2023/12/30 13:24:13;;;;;;;24.13;16.67;;;;;;;;;;5050070;28;20050;-64
2023/12/30 13:27:18;;;;;;;20.40;16.00;;;;;;;;;;5049922;28;20044;-64
2023/12/30 13:30:25;;;;;;;21.67;16.15;;;;;;;;;;5050010;28;20043;-64
2023/12/30 13:33:29;;;;;;;24.58;17.35;;;;;;;;;;5049874;28;20068;-65
2023/12/30 13:36:35;;;;;;;24.45;15.25;;;;;;;;;;5049761;28;20048;-64
2023/12/30 13:39:41;;;;;;;25.67;16.58;;;;;;;;;;5049736;28;20052;-64
2023/12/30 13:42:45;;;;;;;27.67;17.48;;;;;;;;;;5049990;28;20141;-64
2023/12/30 13:45:50;;;;;;;30.48;19.40;;;;;;;;;;5049626;28;20048;-64
2023/12/30 13:52:18;;;;;;;26.17;19.35;;;;;;;;;;5049345;28;20044;-64
2023/12/30 13:55:23;;;;;;;37.20;19.90;;;;;;;;;;5049408;28;20044;-64
2023/12/30 13:58:28;;;;;;;27.73;18.85;;;;;;;;;;5049396;28;20056;-65
2023/12/30 14:01:34;;;;;;;27.58;18.30;;;;;;;;;;5049470;28;20047;-65
2023/12/30 14:04:40;;;;;;;22.40;17.80;;;;;;;;;;5096994;27;20048;-64
2023/12/30 14:07:44;;;;;;;25.40;18.80;;;;;;;;;;5049547;28;20040;-64
2023/12/30 14:10:49;;;;;;;30.63;17.98;;;;;;;;;;5049691;28;20048;-64
2023/12/30 14:13:53;;;;;;;25.73;18.08;;;;;;;;;;5049197;28;20040;-64
2023/12/30 14:16:59;;;;;;;27.25;17.23;;;;;;;;;;5048950;28;20052;-64
2023/12/30 14:20:05;;;;;;;32.00;19.30;;;15.80;98.10;;;;;;5048798;28;20040;-70
2023/12/30 14:23:11;;;;;;;23.02;16.80;;;;;;;;;;5049011;28;20040;-69
2023/12/30 14:26:15;;;;;;;37.58;16.02;;;;;;;;;;5048636;28;20387;-69
2023/12/30 14:29:19;;;;;;;15.65;10.20;;;;;;;;;;5049130;28;20040;-69
2023/12/30 14:32:23;;;;;;;18.85;9.05;;;;;;;;;;5049059;28;20040;-69
2023/12/30 14:35:28;;;;;;;9.32;5.93;;;;;;;;;;5048255;28;20041;-68
2023/12/30 14:38:32;;;;;;;8.45;6.00;;;;;;;;;;5046999;28;20045;-69
2023/12/30 14:41:37;;;;;;;8.27;5.63;;;;;;;;;;5047175;28;20033;-69
2023/12/30 14:44:41;;;;;;;8.65;6.15;;;;;;;;;;5046873;28;20041;-69
2023/12/30 14:47:46;;;;;;;18.83;11.82;;;;;;;;;;5046600;28;20025;-69
2023/12/30 14:50:50;;;;;;;21.85;15.38;;;;;;;;;;5046966;28;20510;-69
2023/12/30 14:53:54;;;;;;;20.30;13.48;;;;;;;;;;5048924;28;20044;-69
2023/12/30 14:56:59;;;;;;;23.33;17.13;;;;;;;;;;5048417;28;20087;-69
2023/12/30 15:00:06;;;;;;;30.02;19.95;;;;;;;;;;5048461;28;20043;-69
2023/12/30 15:03:11;;;;;;;29.48;19.52;;;;;;;;;;5048574;28;20040;-69
2023/12/30 15:06:15;;;;;;;28.05;19.73;;;;;;;;;;5048423;28;20043;-69
2023/12/30 15:09:20;;;;;;;29.48;20.88;;;;;;;;;;5096401;27;20063;-69
2023/12/30 15:12:25;;;;;;;31.95;21.95;;;;;;;;;;5049340;28;20052;-69
2023/12/30 15:15:29;;;;;;;31.83;20.83;;;;;;;;;;5050741;28;20048;-69
2023/12/30 15:18:33;;;;;;;31.20;21.23;;;;;;;;;;5095622;27;20055;-69
2023/12/30 15:21:38;;;;;;;33.55;21.63;;;;;;;;;;5049045;28;20044;-69
2023/12/30 15:24:42;;;;;;;28.55;19.92;;;;;;;;;;5095889;27;20044;-69
2023/12/30 15:27:51;;;;;;;36.78;20.70;;;;;;;;;;5048257;28;20040;-69
2023/12/30 15:30:55;;;;;;;28.63;20.40;;;;;;;;;;5048042;28;20051;-69
2023/12/30 15:34:00;;;;;;;39.50;21.83;;;;;;;;;;5048265;28;20044;-69
2023/12/30 15:37:05;;;;;;;37.92;23.08;;;;;;;;;;5048076;28;20048;-69
2023/12/30 15:40:09;;;;;;;49.10;23.58;;;;;;;;;;5047876;28;20044;-69
2023/12/30 15:43:14;;;;;;;40.78;23.27;;;;;;;;;;5048038;28;20044;-69
2023/12/30 15:46:18;;;;;;;55.67;30.50;;;;;;;;;;5047588;28;20044;-69
2023/12/30 15:49:22;;;;;;;42.22;27.30;;;;;;;;;;5047796;28;20048;-69
2023/12/30 15:52:27;;;;;;;37.35;24.63;;;;;;;;;;5047671;28;20040;-70
2023/12/30 15:55:31;;;;;;;45.17;25.77;;;;;;;;;;5047826;28;20055;-69
2023/12/30 15:58:36;;;;;;;39.20;25.17;;;;;;;;;;5047683;28;20506;-69
2023/12/30 16:01:40;;;;;;;43.60;24.73;;;15.50;99.30;;;;;;5049881;28;20048;-68
2023/12/30 16:04:45;;;;;;;35.72;24.63;;;;;;;;;;5098670;27;20048;-69
2023/12/30 16:07:49;;;;;;;36.60;24.67;;;;;;;;;;5051150;28;20056;-69
2023/12/30 16:10:55;;;;;;;38.13;24.10;;;;;;;;;;5050749;28;20040;-70
2023/12/30 16:13:59;;;;;;;44.20;24.55;;;;;;;;;;5050705;28;20043;-69
2023/12/30 16:17:06;;;;;;;48.25;28.60;;;;;;;;;;5050690;28;20404;-69
2023/12/30 16:20:11;;;;;;;49.33;29.25;;;;;;;;;;5051145;28;20044;-69
2023/12/30 16:23:15;;;;;;;46.67;30.83;;;;;;;;;;5050892;28;20076;-69
2023/12/30 16:26:22;;;;;;;57.22;30.35;;;;;;;;;;5098391;27;20506;-69
2023/12/30 16:29:26;;;;;;;54.38;34.08;;;;;;;;;;5050764;28;20052;-69
2023/12/30 16:32:31;;;;;;;54.38;29.73;;;;;;;;;;5050900;28;20040;-68
2023/12/30 16:35:35;;;;;;;47.13;29.95;;;;;;;;;;5050789;28;20048;-69
2023/12/30 16:38:39;;;;;;;57.22;34.80;;;;;;;;;;5050167;28;20055;-68
2023/12/30 16:41:44;;;;;;;49.53;30.23;;;;;;;;;;5050409;28;20040;-68
2023/12/30 16:44:48;;;;;;;57.08;32.47;;;;;;;;;;5050592;28;20044;-70
2023/12/30 16:47:52;;;;;;;61.42;33.55;;;;;;;;;;5050416;28;20385;-69
2023/12/30 16:50:57;;;;;;;61.78;37.90;;;;;;;;;;5050645;28;20048;-69
2023/12/30 16:54:02;;;;;;;75.65;44.75;;;;;;;;;;5050639;28;20377;-72
2023/12/30 16:57:06;;;;;;;86.13;48.15;;;;;;;;;;5050041;28;20385;-71
2023/12/30 17:00:11;;;;;;;105.57;56.05;;;;;;;;;;5050302;28;20063;-68
2023/12/30 17:03:14;;;;;;;103.43;63.40;;;;;;;;;;5050130;28;20044;-70
2023/12/30 17:06:19;;;;;;;102.13;57.00;;;;;;;;;;5050321;28;20051;-69
2023/12/30 17:09:23;;;;;;;100.47;54.40;;;;;;;;;;5050609;28;20048;-70
2023/12/30 17:12:28;;;;;;;88.07;47.70;;;;;;;;;;5050126;28;20032;-69
2023/12/30 17:15:32;;;;;;;73.78;46.58;;;;;;;;;;5049899;28;20051;-70
2023/12/30 17:18:37;;;;;;;83.70;49.22;;;;;;;;;;5049551;28;20052;-70
2023/12/30 17:21:41;;;;;;;86.88;51.75;;;;;;;;;;5049568;28;20044;-70
2023/12/30 17:24:48;;;;;;;91.88;51.35;;;;;;;;;;5049647;28;20052;-70
2023/12/30 17:27:52;;;;;;;92.63;52.25;;;;;;;;;;5097428;27;20051;-70
2023/12/30 17:30:57;;;;;;;88.97;54.20;;;;;;;;;;5049774;28;20044;-70
2023/12/30 17:34:01;;;;;;;83.72;48.72;;;;;;;;;;5049824;28;20052;-70
2023/12/30 17:37:06;;;;;;;94.85;51.63;;;;;;;;;;5049919;28;20044;-69
2023/12/30 17:40:12;;;;;;;84.28;49.30;;;;;;;;;;5097112;27;20040;-69
2023/12/30 17:43:16;;;;;;;77.30;47.05;;;;;;;;;;5049752;28;20056;-70
2023/12/30 17:46:20;;;;;;;87.95;50.33;;;;;;;;;;5049564;28;20048;-70
2023/12/30 17:49:25;;;;;;;101.63;55.53;;;;;;;;;;5049679;28;20063;-70